Terminal Aerodrome Forecast
Issued by NWS

Home | Current Version | Previous Version | Text Only | Print | Product List | Glossary Off
Versions: 1 2 3 4 5 6 7 8 9 10 11 12 13 14 15

269
FTUS43 KUNR 221729
TAFGCC
TAF
KGCC 221729Z 2218/2318 33020G30KT P6SM VCTS BKN040CB
      TEMPO 2218/2220 5SM -TSRA BKN025CB
     FM230000 30010KT P6SM BKN050=

USA.gov is the U.S. government's official web portal to all federal, state and local government web resources and services.